Bay State Village, Massachusetts
Current Conditions -  °F | °C
As of 10:58 PM on Tuesday 25 Nov 2014 (Local Time) from KCEF Reporting Station
Few Clouds Few Clouds  
Wind Chill: 34°   Ceiling: Unl
Heat Index: 34°   Visibility: 10mi
Dew Point: 30°   Wind: 0mph
Humidity: 85%   Direction: NA
Pressure: 30.1"   Gusts: NA
Location:  42.3249°N, 72.6582°W
Report Text: KCEF 260358Z AUTO 00000KT 10SM FEW230 01/M01 A3010 RMK AO2 SLP200 T00121011
Loading
Personal Weather Stations






























Interactive Weather Map New forecast layout! Learn more

10-Day Weather Forecast

Advertisements
Track Severe Weather on mobile